createdAt,value
2022-11-15T00:02:14.048Z,44.75
2022-11-15T00:05:00.361Z,43.55
2022-11-15T00:07:55.536Z,43.58
2022-11-15T00:10:42.301Z,43.88
2022-11-15T00:13:29.319Z,41.90
2022-11-15T00:16:15.980Z,44.05
2022-11-15T00:19:03.834Z,44.65
2022-11-15T00:21:49.884Z,46.92
2022-11-15T00:24:35.904Z,43.58
2022-11-15T00:27:21.976Z,43.45
2022-11-15T00:30:08.355Z,45.95
2022-11-15T00:32:54.447Z,45.53
2022-11-15T00:35:40.224Z,46.35
2022-11-15T00:38:26.072Z,48.80
2022-11-15T00:41:12.153Z,50.03
2022-11-15T00:43:58.390Z,47.20
2022-11-15T00:46:44.346Z,47.30
2022-11-15T00:49:30.315Z,47.03
2022-11-15T00:52:16.244Z,42.72
2022-11-15T00:55:02.151Z,38.33
2022-11-15T00:57:48.139Z,40.80
2022-11-15T01:00:34.199Z,39.78
2022-11-15T01:03:20.563Z,39.17
2022-11-15T01:06:07.347Z,40.42
2022-11-15T01:08:53.284Z,39.08
2022-11-15T01:11:39.243Z,37.45
2022-11-15T01:14:25.750Z,38.53
2022-11-15T01:17:12.287Z,36.85
2022-11-15T01:19:58.501Z,37.15
2022-11-15T01:22:44.716Z,36.78
2022-11-15T01:25:30.796Z,36.85
2022-11-15T01:28:17.023Z,36.70
2022-11-15T01:31:06.051Z,37.28
2022-11-15T01:33:52.146Z,38.25
2022-11-15T01:36:38.564Z,39.22
2022-11-15T01:39:24.425Z,38.38
2022-11-15T01:42:14.331Z,39.03
2022-11-15T01:45:00.352Z,39.95
2022-11-15T01:47:54.235Z,38.30
2022-11-15T01:50:40.162Z,39.00
2022-11-15T01:53:27.490Z,38.97
2022-11-15T01:56:21.583Z,39.58
2022-11-15T01:59:09.925Z,41.00
2022-11-15T02:01:56.257Z,38.58
2022-11-15T02:04:51.133Z,38.65
2022-11-15T02:07:38.175Z,41.17
2022-11-15T02:10:25.870Z,40.00
2022-11-15T02:13:12.105Z,40.13
2022-11-15T02:16:02.826Z,39.03
2022-11-15T02:18:56.605Z,42.08
2022-11-15T02:21:56.744Z,39.65
2022-11-15T02:24:42.605Z,36.70
2022-11-15T02:27:55.185Z,37.63
2022-11-15T02:30:54.525Z,37.10
2022-11-15T02:34:03.115Z,34.00
2022-11-15T02:36:48.920Z,33.47
2022-11-15T02:39:50.291Z,33.10
2022-11-15T02:43:08.304Z,31.30
2022-11-15T02:46:11.107Z,29.98
2022-11-15T02:48:57.202Z,30.02
2022-11-15T02:51:46.193Z,28.98
2022-11-15T02:54:34.934Z,29.15
2022-11-15T02:57:35.562Z,27.90
2022-11-15T03:00:22.756Z,26.95
2022-11-15T03:03:40.642Z,26.20
2022-11-15T03:06:32.724Z,24.42
2022-11-15T03:09:36.634Z,25.90
2022-11-15T03:12:28.770Z,24.73
2022-11-15T03:15:32.824Z,22.48
2022-11-15T03:18:48.771Z,23.95
2022-11-15T03:21:36.992Z,22.48
2022-11-15T03:24:26.423Z,21.00
2022-11-15T03:27:15.825Z,21.00
2022-11-15T03:30:05.637Z,21.00
2022-11-15T03:32:57.664Z,21.20
2022-11-15T03:35:46.029Z,20.02
2022-11-15T03:38:34.943Z,19.60
2022-11-15T03:41:30.905Z,19.75
2022-11-15T03:44:38.964Z,18.98
2022-11-15T03:47:30.700Z,19.60
2022-11-15T03:50:20.961Z,17.77
2022-11-15T03:53:07.275Z,17.33
2022-11-15T03:55:53.615Z,17.40
2022-11-15T03:58:39.903Z,16.85
2022-11-15T04:01:26.022Z,17.13
2022-11-15T04:04:12.088Z,17.42
2022-11-15T04:06:58.212Z,17.00
2022-11-15T04:10:02.616Z,17.25
2022-11-15T04:15:35.372Z,16.60
2022-11-15T04:18:22.110Z,16.80
2022-11-15T04:21:27.957Z,15.25
2022-11-15T04:24:14.143Z,16.13
2022-11-15T04:27:00.225Z,15.65
2022-11-15T04:29:46.293Z,14.88
2022-11-15T04:32:32.231Z,14.98
2022-11-15T04:35:18.410Z,13.75
2022-11-15T04:38:05.844Z,13.35
2022-11-15T04:40:52.186Z,13.15
2022-11-15T04:43:38.393Z,13.30
2022-11-15T04:46:25.424Z,13.40
2022-11-15T04:49:11.895Z,12.88
2022-11-15T04:51:57.953Z,12.15
2022-11-15T04:54:43.880Z,11.63
2022-11-15T04:57:30.013Z,12.02
2022-11-15T05:00:18.155Z,12.30
2022-11-15T05:03:23.115Z,11.35
2022-11-15T05:06:09.307Z,12.07
2022-11-15T05:08:55.589Z,11.00
2022-11-15T05:11:42.222Z,11.38
2022-11-15T05:14:28.652Z,11.65
2022-11-15T05:17:14.711Z,11.48
2022-11-15T05:20:00.783Z,10.95
2022-11-15T05:22:46.962Z,10.77
2022-11-15T05:25:33.153Z,11.30
2022-11-15T05:28:19.296Z,10.38
2022-11-15T05:31:17.013Z,10.57
2022-11-15T05:34:05.874Z,10.25
2022-11-15T05:36:51.990Z,10.35
2022-11-15T05:39:38.138Z,11.02
2022-11-15T05:42:24.343Z,11.00
2022-11-15T05:45:10.742Z,12.15
2022-11-15T05:47:59.305Z,12.15
2022-11-15T05:50:47.623Z,12.02
2022-11-15T05:53:34.716Z,14.73
2022-11-15T05:56:21.162Z,13.75
2022-11-15T05:59:08.984Z,13.15
2022-11-15T06:01:55.083Z,13.38
2022-11-15T06:04:41.112Z,12.05
2022-11-15T06:07:27.616Z,12.95
2022-11-15T06:10:13.961Z,12.43
2022-11-15T06:13:04.297Z,11.95
2022-11-15T06:15:50.724Z,20.02
2022-11-15T06:18:37.893Z,17.05
2022-11-15T06:21:24.275Z,12.70
2022-11-15T06:24:10.281Z,12.65
2022-11-15T06:26:56.310Z,12.50
2022-11-15T06:29:42.733Z,11.23
2022-11-15T06:32:30.617Z,11.75
2022-11-15T06:35:17.365Z,12.77
2022-11-15T06:38:06.175Z,12.60
2022-11-15T06:40:52.416Z,12.48
2022-11-15T06:43:38.835Z,12.27
2022-11-15T06:46:24.841Z,12.13
2022-11-15T06:49:11.138Z,11.32
2022-11-15T06:51:57.338Z,11.88
2022-11-15T06:54:43.192Z,11.85
2022-11-15T06:57:29.214Z,11.38
2022-11-15T07:00:15.965Z,13.20
2022-11-15T07:03:02.225Z,13.52
2022-11-15T07:05:54.394Z,14.52
2022-11-15T07:08:40.416Z,14.23
2022-11-15T07:11:26.586Z,15.52
2022-11-15T07:14:12.512Z,14.82
2022-11-15T07:16:58.581Z,14.80
2022-11-15T07:19:44.820Z,14.95
2022-11-15T07:22:30.782Z,14.50
2022-11-15T07:25:16.955Z,14.75
2022-11-15T07:28:04.085Z,15.10
2022-11-15T07:30:50.066Z,14.27
2022-11-15T07:33:36.152Z,13.95
2022-11-15T07:36:22.384Z,13.43
2022-11-15T07:39:08.536Z,14.25
2022-11-15T07:42:14.554Z,13.15
2022-11-15T07:45:00.476Z,13.18
2022-11-15T07:47:50.715Z,12.90
2022-11-15T07:50:36.595Z,12.35
2022-11-15T07:53:22.666Z,11.95
2022-11-15T07:56:09.446Z,11.73
2022-11-15T07:58:55.342Z,12.60
2022-11-15T08:01:41.403Z,10.90
2022-11-15T08:04:27.297Z,10.75
2022-11-15T08:07:13.323Z,11.75
2022-11-15T08:09:59.713Z,11.55
2022-11-15T08:12:46.025Z,10.48
2022-11-15T08:15:33.673Z,12.00
2022-11-15T08:18:19.762Z,11.10
2022-11-15T08:21:06.066Z,10.43
2022-11-15T08:23:52.803Z,10.55
2022-11-15T08:26:39.325Z,10.00
2022-11-15T08:29:25.385Z,8.70
2022-11-15T08:32:12.387Z,9.15
2022-11-15T08:34:58.536Z,7.97
2022-11-15T08:37:44.877Z,8.10
2022-11-15T08:40:31.126Z,7.30
2022-11-15T08:43:17.035Z,7.60
2022-11-15T08:46:03.265Z,7.10
2022-11-15T08:48:49.152Z,7.53
2022-11-15T08:51:35.284Z,6.93
2022-11-15T08:54:21.237Z,7.05
2022-11-15T08:57:07.655Z,7.25
2022-11-15T08:59:53.676Z,7.72
2022-11-15T09:02:40.774Z,6.95
2022-11-15T09:05:27.602Z,10.02
2022-11-15T09:08:45.547Z,8.65
2022-11-15T09:11:22.466Z,8.95
2022-11-15T09:14:08.765Z,9.30
2022-11-15T09:16:55.104Z,8.52
2022-11-15T09:19:41.306Z,8.23
2022-11-15T09:22:27.329Z,6.97
2022-11-15T09:25:13.498Z,6.78
2022-11-15T09:27:59.986Z,7.75
2022-11-15T09:30:46.085Z,6.68
2022-11-15T09:33:32.735Z,7.28
2022-11-15T09:36:19.008Z,8.23
2022-11-15T09:39:05.096Z,13.50
2022-11-15T09:42:17.205Z,14.13
2022-11-15T09:45:17.335Z,15.13
2022-11-15T09:48:24.743Z,15.27
2022-11-15T09:51:33.366Z,15.47
2022-11-15T09:54:37.923Z,16.47
2022-11-15T09:57:20.125Z,13.63
2022-11-15T10:00:12.415Z,14.55
2022-11-15T10:02:57.613Z,13.93
2022-11-15T10:05:26.889Z,15.85
2022-11-15T10:07:54.287Z,15.93
2022-11-15T10:10:31.642Z,16.88
2022-11-15T10:13:00.313Z,18.73
2022-11-15T10:15:27.796Z,19.65
2022-11-15T10:18:19.368Z,18.35
2022-11-15T10:20:55.388Z,19.55
2022-11-15T10:23:24.313Z,18.25
2022-11-15T10:26:01.162Z,18.30
2022-11-15T10:28:33.221Z,16.23
2022-11-15T10:31:02.667Z,16.20
2022-11-15T10:33:36.846Z,15.73
2022-11-15T10:36:14.505Z,16.73
2022-11-15T10:38:51.093Z,17.88
2022-11-15T10:41:32.724Z,17.05
2022-11-15T10:44:20.452Z,15.38
2022-11-15T10:47:05.283Z,14.05
2022-11-15T10:49:34.745Z,12.80
2022-11-15T10:52:17.816Z,12.85
2022-11-15T10:55:17.627Z,12.30
2022-11-15T10:57:52.256Z,11.85
2022-11-15T11:00:19.904Z,11.88
2022-11-15T11:03:28.026Z,11.27
2022-11-15T11:06:31.159Z,11.57
2022-11-15T11:09:04.814Z,11.65
2022-11-15T11:11:49.904Z,10.95
2022-11-15T11:14:24.391Z,10.93
2022-11-15T11:17:35.527Z,11.73
2022-11-15T11:20:32.492Z,10.93
2022-11-15T11:23:25.624Z,10.80
2022-11-15T11:26:07.447Z,11.57
2022-11-15T11:28:55.835Z,12.70
2022-11-15T11:31:44.395Z,11.95
2022-11-15T11:34:14.923Z,16.48
2022-11-15T11:36:56.726Z,15.90
2022-11-15T11:39:29.987Z,16.85
2022-11-15T11:42:09.636Z,18.50
2022-11-15T11:44:58.292Z,17.58
2022-11-15T11:47:34.836Z,16.90
2022-11-15T11:50:18.634Z,16.88
2022-11-15T11:53:05.498Z,19.30
2022-11-15T11:55:41.533Z,17.23
2022-11-15T11:58:23.110Z,15.57
2022-11-15T12:01:13.416Z,12.90
2022-11-15T12:03:41.062Z,12.95
2022-11-15T12:06:32.453Z,14.98
2022-11-15T12:09:02.835Z,14.73
2022-11-15T12:11:56.051Z,13.02
2022-11-15T12:18:36.797Z,16.58
2022-11-15T12:21:43.428Z,15.75
2022-11-15T12:24:19.874Z,15.50
2022-11-15T12:27:01.456Z,15.98
2022-11-15T12:29:38.958Z,16.13
2022-11-15T12:32:38.713Z,15.13
2022-11-15T12:35:29.265Z,14.38
2022-11-15T12:37:57.868Z,12.98
2022-11-15T12:40:26.877Z,14.45
2022-11-15T12:43:16.267Z,14.48
2022-11-15T12:45:45.985Z,13.25
2022-11-15T12:48:19.235Z,13.07
2022-11-15T12:50:54.216Z,15.07
2022-11-15T12:53:24.676Z,14.80
2022-11-15T12:56:04.175Z,13.68
2022-11-15T12:59:00.788Z,13.52
2022-11-15T13:01:34.462Z,14.00
2022-11-15T13:04:19.962Z,12.60
2022-11-15T13:06:50.153Z,11.48
2022-11-15T13:09:38.613Z,10.23
2022-11-15T13:12:28.780Z,10.60
2022-11-15T13:14:59.437Z,10.02
2022-11-15T13:17:34.865Z,9.82
2022-11-15T13:20:08.106Z,10.38
2022-11-15T13:22:52.222Z,10.30
2022-11-15T13:27:51.777Z,10.48
2022-11-15T13:30:29.018Z,11.15
2022-11-15T13:32:58.626Z,10.52
2022-11-15T13:35:29.071Z,10.93
2022-11-15T13:37:58.897Z,10.35
2022-11-15T13:40:31.542Z,10.50
2022-11-15T13:42:59.438Z,11.15
2022-11-15T13:45:27.878Z,11.60
2022-11-15T13:47:57.419Z,12.15
2022-11-15T13:50:38.026Z,11.75
2022-11-15T13:53:06.805Z,11.82
2022-11-15T13:55:34.548Z,12.05
2022-11-15T13:58:07.387Z,12.73
2022-11-15T14:00:35.431Z,11.90
2022-11-15T14:03:26.759Z,12.73
2022-11-15T14:06:13.430Z,12.63
2022-11-15T14:09:02.036Z,12.57
2022-11-15T14:11:29.733Z,13.30
2022-11-15T14:14:13.597Z,13.63
2022-11-15T14:16:42.708Z,13.25
2022-11-15T14:19:34.934Z,12.98
2022-11-15T14:22:16.079Z,13.90
2022-11-15T14:24:47.061Z,13.52
2022-11-15T14:27:22.297Z,13.43
2022-11-15T14:29:50.297Z,13.13
2022-11-15T14:32:24.488Z,13.63
2022-11-15T14:34:56.348Z,13.30
2022-11-15T14:37:35.117Z,13.77
2022-11-15T14:40:05.256Z,12.98
2022-11-15T14:42:33.337Z,13.15
2022-11-15T14:45:00.771Z,13.00
2022-11-15T14:47:28.367Z,12.63
2022-11-15T14:49:55.803Z,12.50
2022-11-15T14:52:32.778Z,12.98
2022-11-15T14:55:03.350Z,12.52
2022-11-15T14:57:31.358Z,13.15
2022-11-15T14:59:58.798Z,12.77
2022-11-15T15:02:40.592Z,13.90
2022-11-15T15:05:21.344Z,13.05
2022-11-15T15:07:49.533Z,12.30
2022-11-15T15:10:39.665Z,12.98
2022-11-15T15:13:07.268Z,12.93
2022-11-15T15:15:37.417Z,12.15
2022-11-15T15:18:06.016Z,11.38
2022-11-15T15:20:33.949Z,11.98
2022-11-15T15:23:01.728Z,12.70
2022-11-15T15:25:33.090Z,11.43
2022-11-15T15:28:01.510Z,11.60
2022-11-15T15:30:31.295Z,11.80
2022-11-15T15:32:58.875Z,11.27
2022-11-15T15:35:32.068Z,11.52
2022-11-15T15:37:59.947Z,11.68
2022-11-15T15:40:30.906Z,11.50
2022-11-15T15:42:58.543Z,11.13
2022-11-15T15:45:28.627Z,12.02
2022-11-15T15:47:56.932Z,11.68
2022-11-15T15:50:30.043Z,12.00
2022-11-15T15:53:00.609Z,11.73
2022-11-15T15:55:28.879Z,11.27
2022-11-15T15:57:56.595Z,12.60
2022-11-15T16:00:25.951Z,10.80
2022-11-15T16:02:54.786Z,11.68
2022-11-15T16:05:23.225Z,10.52
2022-11-15T16:07:50.826Z,12.00
2022-11-15T16:10:27.317Z,11.20
2022-11-15T16:12:56.026Z,11.38
2022-11-15T16:15:25.503Z,11.05
2022-11-15T16:17:55.527Z,11.57
2022-11-15T16:20:45.479Z,10.90
2022-11-15T16:23:19.107Z,11.18
2022-11-15T16:25:52.202Z,11.52
2022-11-15T16:28:23.196Z,11.80
2022-11-15T16:31:00.366Z,12.07
2022-11-15T16:33:27.813Z,12.73
2022-11-15T16:35:55.307Z,11.93
2022-11-15T16:38:22.928Z,11.90
2022-11-15T16:40:50.377Z,12.30
2022-11-15T16:43:18.469Z,12.50
2022-11-15T16:45:46.238Z,13.52
2022-11-15T16:48:28.465Z,11.93
2022-11-15T16:50:57.679Z,12.25
2022-11-15T16:53:26.597Z,12.32
2022-11-15T16:55:55.497Z,12.65
2022-11-15T16:58:23.445Z,12.65
2022-11-15T17:00:55.345Z,12.90
2022-11-15T17:03:24.178Z,13.20
2022-11-15T17:05:52.418Z,13.70
2022-11-15T17:08:22.073Z,12.68
2022-11-15T17:10:49.803Z,13.63
2022-11-15T17:13:17.624Z,15.50
2022-11-15T17:15:45.059Z,16.25
2022-11-15T17:18:14.198Z,16.33
2022-11-15T17:20:42.907Z,16.92
2022-11-15T17:23:15.056Z,16.27
2022-11-15T17:25:42.727Z,16.95
2022-11-15T17:28:10.977Z,17.02
2022-11-15T17:30:42.269Z,17.27
2022-11-15T17:33:09.739Z,17.33
2022-11-15T17:35:37.158Z,19.70
2022-11-15T17:38:04.700Z,18.83
2022-11-15T17:40:32.168Z,18.50
2022-11-15T17:42:59.706Z,19.38
2022-11-15T17:45:27.057Z,18.50
2022-11-15T17:47:54.630Z,18.50
2022-11-15T17:50:22.187Z,17.75
2022-11-15T17:52:49.548Z,17.33
2022-11-15T17:55:17.127Z,17.75
2022-11-15T17:57:44.718Z,17.88
2022-11-15T18:00:12.803Z,17.33
2022-11-15T18:02:40.283Z,17.52
2022-11-15T18:05:08.084Z,17.85
2022-11-15T18:07:35.539Z,17.90
2022-11-15T18:10:03.147Z,17.75
2022-11-15T18:12:30.676Z,17.58
2022-11-15T18:14:58.277Z,17.35
2022-11-15T18:17:26.048Z,17.17
2022-11-15T18:19:53.541Z,17.88
2022-11-15T18:22:21.002Z,18.10
2022-11-15T18:24:48.519Z,18.10
2022-11-15T18:27:16.033Z,18.95
2022-11-15T18:29:44.989Z,20.10
2022-11-15T18:32:15.178Z,19.70
2022-11-15T18:34:42.744Z,18.33
2022-11-15T18:37:10.261Z,18.27
2022-11-15T18:39:37.987Z,16.75
2022-11-15T18:42:05.653Z,17.75
2022-11-15T18:44:33.188Z,17.30
2022-11-15T18:47:00.718Z,15.55
2022-11-15T18:49:28.509Z,15.32
2022-11-15T18:51:57.161Z,16.13
2022-11-15T18:54:30.660Z,16.10
2022-11-15T18:56:59.241Z,16.23
2022-11-15T18:59:27.954Z,14.45
2022-11-15T19:01:56.145Z,14.77
2022-11-15T19:04:23.643Z,15.10
2022-11-15T19:06:51.494Z,15.07
2022-11-15T19:09:19.598Z,15.52
2022-11-15T19:11:48.497Z,15.02
2022-11-15T19:14:17.620Z,14.68
2022-11-15T19:16:55.257Z,14.85
2022-11-15T19:19:25.808Z,15.20
2022-11-15T19:21:53.829Z,15.70
2022-11-15T19:24:21.354Z,15.45
2022-11-15T19:26:49.005Z,15.35
2022-11-15T19:29:17.427Z,16.02
2022-11-15T19:31:45.495Z,14.85
2022-11-15T19:34:13.094Z,14.85
2022-11-15T19:36:42.649Z,15.98
2022-11-15T19:39:13.359Z,15.50
2022-11-15T19:41:43.061Z,15.00
2022-11-15T19:44:12.216Z,14.55
2022-11-15T19:46:40.504Z,13.40
2022-11-15T19:49:10.770Z,13.80
2022-11-15T19:51:41.718Z,13.07
2022-11-15T19:54:10.579Z,13.25
2022-11-15T19:56:40.189Z,13.32
2022-11-15T19:59:08.227Z,12.30
2022-11-15T20:01:38.736Z,13.23
2022-11-15T20:04:08.196Z,13.75
2022-11-15T20:06:39.487Z,13.45
2022-11-15T20:09:07.307Z,13.27
2022-11-15T20:11:35.087Z,13.10
2022-11-15T20:14:02.634Z,12.50
2022-11-15T20:16:30.429Z,13.60
2022-11-15T20:18:58.080Z,12.85
2022-11-15T20:21:25.636Z,13.38
2022-11-15T20:23:53.287Z,12.57
2022-11-15T20:26:21.092Z,12.18
2022-11-15T20:28:49.240Z,12.68
2022-11-15T20:31:17.928Z,11.85
2022-11-15T20:33:46.163Z,11.52
2022-11-15T20:36:15.739Z,11.93
2022-11-15T20:38:44.487Z,12.07
2022-11-15T20:41:13.038Z,11.32
2022-11-15T20:43:43.753Z,12.43
2022-11-15T20:46:12.690Z,12.15
2022-11-15T20:48:40.663Z,11.80
2022-11-15T20:51:14.426Z,11.88
2022-11-15T20:53:43.927Z,12.20
2022-11-15T20:56:14.226Z,11.82
2022-11-15T20:58:42.497Z,11.30
2022-11-15T21:01:13.871Z,11.68
2022-11-15T21:03:41.667Z,11.40
2022-11-15T21:06:10.296Z,11.43
2022-11-15T21:08:56.503Z,11.10
2022-11-15T21:11:43.757Z,10.43
2022-11-15T21:14:11.396Z,10.85
2022-11-15T21:16:39.198Z,10.95
2022-11-15T21:19:07.048Z,10.02
2022-11-15T21:21:36.418Z,11.35
2022-11-15T21:24:06.358Z,10.68
2022-11-15T21:26:34.585Z,11.30
2022-11-15T21:29:02.533Z,11.93
2022-11-15T21:31:30.535Z,11.10
2022-11-15T21:33:58.119Z,11.05
2022-11-15T21:36:25.637Z,10.40
2022-11-15T21:38:53.795Z,10.35
2022-11-15T21:41:21.449Z,10.27
2022-11-15T21:43:48.833Z,10.20
2022-11-15T21:46:16.433Z,10.25
2022-11-15T21:48:43.876Z,9.35
2022-11-15T21:51:12.527Z,10.30
2022-11-15T21:53:39.997Z,9.27
2022-11-15T21:56:08.027Z,9.38
2022-11-15T21:58:36.217Z,9.27
2022-11-15T22:01:23.189Z,9.25
2022-11-15T22:03:51.267Z,8.77
2022-11-15T22:06:18.711Z,9.40
2022-11-15T22:08:46.984Z,9.57
2022-11-15T22:11:15.101Z,8.43
2022-11-15T22:13:43.143Z,9.40
2022-11-15T22:16:11.227Z,9.45
2022-11-15T22:18:39.500Z,8.93
2022-11-15T22:21:12.973Z,9.05
2022-11-15T22:23:41.208Z,8.80
2022-11-15T22:26:12.344Z,9.13
2022-11-15T22:28:40.645Z,8.93
2022-11-15T22:31:09.244Z,8.50
2022-11-15T22:33:37.358Z,9.00
2022-11-15T22:36:06.163Z,9.57
2022-11-15T22:38:34.026Z,9.15
2022-11-15T22:41:02.630Z,9.98
2022-11-15T22:43:30.518Z,9.30
2022-11-15T22:46:00.282Z,9.40
2022-11-15T22:48:36.706Z,9.20
2022-11-15T22:51:05.987Z,9.75
2022-11-15T22:53:34.070Z,9.00
2022-11-15T22:56:04.810Z,9.30
2022-11-15T22:58:33.790Z,9.10
2022-11-15T23:01:03.750Z,9.05
2022-11-15T23:03:33.363Z,9.52
2022-11-15T23:06:03.449Z,9.10
2022-11-15T23:08:31.096Z,9.18
2022-11-15T23:11:21.663Z,9.68
2022-11-15T23:13:52.075Z,8.50
2022-11-15T23:16:23.951Z,8.60
2022-11-15T23:18:54.789Z,8.70
2022-11-15T23:21:45.788Z,9.25
2022-11-15T23:24:14.653Z,9.15
2022-11-15T23:26:43.256Z,8.73
2022-11-15T23:29:13.347Z,8.82
2022-11-15T23:32:02.530Z,8.35
2022-11-15T23:34:36.780Z,8.18
2022-11-15T23:37:05.157Z,9.27
2022-11-15T23:39:32.988Z,8.38
2022-11-15T23:42:04.571Z,8.27
2022-11-15T23:44:36.188Z,9.00
2022-11-15T23:47:03.897Z,8.88
2022-11-15T23:49:31.434Z,8.88
2022-11-15T23:51:59.086Z,8.88
2022-11-15T23:54:26.654Z,8.63
2022-11-15T23:56:54.196Z,8.80
2022-11-15T23:59:21.837Z,8.98
